Time;durP1;ratioP1;P1;durP2;ratioP2;P2;SDS_P1;SDS_P2;PMS_P1;PMS_P2;Temp;Humidity;BMP_temperature;BMP_pressure;BME280_temperature;BME280_humidity;BME280_pressure;Samples;Min_cycle;Max_cycle;Signal;HPM_P1;HPM_P2
2022/07/03 00:01:06;;;;;;;6.68;4.85;;;;;;;14.01;84.17;98867.78;4137010;28;20060;-71
2022/07/03 00:03:07;;;;;;;13.05;5.03;;;;;;;14.01;83.07;98878.91;4136373;28;20149;-71
2022/07/03 00:05:07;;;;;;;4.95;4.55;;;;;;;13.97;82.67;98867.75;4136772;28;20408;-71
2022/07/03 00:07:08;;;;;;;6.57;4.60;;;;;;;13.96;82.79;98874.50;4137052;28;20044;-71
2022/07/03 00:09:08;;;;;;;6.28;4.38;;;;;;;13.95;82.47;98870.13;4135389;28;20033;-71
2022/07/03 00:11:09;;;;;;;5.03;4.10;;;;;;;13.96;82.01;98877.28;4135931;28;20443;-71
2022/07/03 00:13:09;;;;;;;4.97;4.47;;;;;;;13.95;81.70;98870.13;4138046;28;20029;-72
2022/07/03 00:15:10;;;;;;;6.40;3.95;;;;;;;13.94;82.08;98873.31;4133727;28;20060;-72
2022/07/03 00:17:11;;;;;;;7.45;4.50;;;;;;;13.89;82.12;98871.69;4135395;28;20033;-73
2022/07/03 00:19:11;;;;;;;4.80;4.20;;;;;;;13.87;82.87;98873.28;4136053;28;20044;-72
2022/07/03 00:21:18;;;;;;;4.05;3.63;;;;;;;13.78;83.52;98874.44;4136143;28;20098;-71
2022/07/03 00:23:21;;;;;;;5.95;4.32;;;;;;;13.71;83.32;98868.81;4136529;28;20037;-71
2022/07/03 00:25:22;;;;;;;3.92;3.28;;;;;;;13.69;83.14;98864.84;4136085;28;20390;-71
2022/07/03 00:27:25;;;;;;;4.85;3.80;;;;;;;13.69;83.01;98876.75;4135064;28;20037;-71
2022/07/03 00:29:30;;;;;;;5.35;4.53;;;;;;;13.68;82.40;98866.84;4135316;28;20536;-71
2022/07/03 00:31:33;;;;;;;6.10;3.97;;;;;;;13.66;83.57;98866.44;4135717;28;20419;-71
2022/07/03 00:33:34;;;;;;;4.18;3.75;;;;;;;13.63;84.43;98867.19;4136535;28;20095;-71
2022/07/03 00:35:37;;;;;;;6.80;4.70;;;;;;;13.55;84.48;98865.56;4137482;28;20034;-71
2022/07/03 00:37:38;;;;;;;4.63;3.70;;;;;;;13.53;85.13;98864.38;4136251;28;20883;-72
2022/07/03 00:39:42;;;;;;;4.50;4.10;;;;;;;13.48;85.91;98866.31;4135194;28;20065;-71
2022/07/03 00:41:45;;;;;;;6.20;3.90;;;;;;;13.45;85.55;98867.09;4136562;28;20026;-71
2022/07/03 00:43:46;;;;;;;4.60;4.03;;;;;;;13.41;86.28;98868.28;4136518;28;20033;-71
2022/07/03 00:45:48;;;;;;;6.05;4.55;;;;;;;13.39;86.06;98862.28;4134982;28;20022;-71
2022/07/03 00:47:48;;;;;;;4.80;4.30;;;;;;;13.39;84.65;98867.84;4136921;28;20026;-71
2022/07/03 00:49:55;;;;;;;4.85;4.30;;;;;;;13.37;85.14;98861.88;4133997;28;20175;-71
2022/07/03 00:51:56;;;;;;;4.75;4.00;;;;;;;13.35;84.46;98859.50;4135723;28;20042;-71
2022/07/03 00:53:58;;;;;;;4.75;4.13;;;;;;;13.33;84.42;98869.41;4136587;28;20117;-71
2022/07/03 00:56:03;;;;;;;6.57;4.97;;;;;;;13.26;84.60;98859.03;4137034;28;20136;-71
2022/07/03 00:58:05;;;;;;;6.95;3.97;;;;;;;13.25;84.31;98867.75;4135008;28;20052;-71
2022/07/03 01:00:06;;;;;;;5.53;4.13;;;;;;;13.23;85.90;98862.56;4134270;28;20030;-71
2022/07/03 01:02:12;;;;;;;6.68;4.03;;;;;;;13.20;85.86;98855.03;4136488;28;20042;-71
2022/07/03 01:04:21;;;;;;;7.53;4.30;;;;;;;13.20;85.13;98860.56;4136863;28;20466;-71
2022/07/03 01:06:23;;;;;;;4.32;3.92;;;;;;;13.18;85.86;98860.94;4136327;28;20064;-71
2022/07/03 01:08:40;;;;;;;4.82;4.40;;;;;;;13.12;85.31;98856.13;4135663;28;20899;-72
2022/07/03 01:11:07;;;;;;;4.63;3.92;;;;;;;13.08;86.06;98858.09;4136270;28;20115;-71
2022/07/03 01:13:20;;;;;;;4.80;3.97;;;;;;;13.04;85.48;98849.72;4135157;28;20030;-71
2022/07/03 01:15:57;;;;;;;5.15;3.95;;;;;;;13.00;86.05;98846.13;4137056;28;20022;-71
2022/07/03 01:18:29;;;;;;;4.43;4.03;;;;;;;12.97;86.77;98846.88;4135816;28;20129;-71
2022/07/03 01:20:32;;;;;;;4.20;3.80;;;;;;;12.91;86.27;98845.66;4126261;28;20876;-71
2022/07/03 01:22:43;;;;;;;4.30;3.90;;;;;;;12.92;86.41;98836.16;4136046;28;20041;-71
2022/07/03 01:25:11;;;;;;;4.53;3.85;;;;;;;12.89;86.83;98839.66;4138100;28;20037;-71
2022/07/03 01:27:19;;;;;;;4.03;3.63;;;;;;;12.85;86.31;98836.09;4139193;28;20029;-71
2022/07/03 01:29:30;;;;;;;5.40;4.00;;;;;;;12.81;86.56;98832.47;4138269;28;20030;-71
2022/07/03 01:31:31;;;;;;;4.60;4.20;;;;;;;12.77;86.47;98838.00;4139333;28;20540;-71
2022/07/03 01:33:32;;;;;;;3.90;3.50;;;;;;;12.72;86.98;98838.34;4139674;28;20048;-71
2022/07/03 01:35:38;;;;;;;5.70;3.63;;;;;;;12.71;86.77;98839.53;4139876;28;20065;-71
2022/07/03 01:37:40;;;;;;;4.13;3.70;;;;;;;12.67;87.56;98835.13;4139177;28;20493;-71
2022/07/03 01:39:45;;;;;;;5.75;3.85;;;;;;;12.64;87.26;98839.47;4137283;28;20048;-71
2022/07/03 01:41:48;;;;;;;4.03;3.63;;;;;;;12.59;87.92;98840.63;4138819;28;20497;-71
2022/07/03 01:43:55;;;;;;;4.78;4.18;;;;;;;12.55;87.74;98839.78;4139310;28;20351;-72
2022/07/03 01:45:58;;;;;;;4.80;3.75;;;;;;;12.51;88.59;98838.16;4139189;28;20095;-71
2022/07/03 01:48:02;;;;;;;6.68;3.85;;;;;;;12.48;89.12;98841.69;4139351;28;20045;-71
2022/07/03 01:50:02;;;;;;;4.53;3.85;;;;;;;12.42;89.66;98837.69;4136020;28;20091;-71
2022/07/03 01:52:05;;;;;;;4.40;3.95;;;;;;;12.38;89.87;98841.19;4139604;28;20487;-71
2022/07/03 01:54:06;;;;;;;5.22;4.00;;;;;;;12.34;89.54;98822.94;4139720;28;20607;-71
2022/07/03 01:56:07;;;;;;;5.75;4.07;;;;;;;12.29;90.00;98829.63;4138052;28;20552;-71
2022/07/03 01:58:10;;;;;;;5.45;4.28;;;;;;;12.30;89.93;98835.97;4139891;28;20208;-72
2022/07/03 02:00:18;;;;;;;4.45;3.85;;;;;;;12.31;90.92;98827.25;4137841;28;20475;-72
2022/07/03 02:02:28;;;;;;;4.95;4.45;;;;;;;12.30;90.53;98824.88;4139129;28;20034;-71
2022/07/03 02:04:33;;;;;;;6.20;3.90;;;;;;;12.27;91.00;98826.44;4139465;28;20676;-71
2022/07/03 02:06:40;;;;;;;4.00;3.60;;;;;;;12.29;90.30;98828.81;4138461;28;20088;-71
2022/07/03 02:08:44;;;;;;;8.50;4.50;;;;;;;12.25;91.06;98826.03;4138168;28;20289;-72
2022/07/03 02:11:07;;;;;;;4.63;4.15;;;;;;;12.22;90.99;98826.78;4138646;28;20482;-71
2022/07/03 02:13:34;;;;;;;7.10;4.28;;;;;;;12.18;90.64;98812.09;4136823;28;20026;-71
2022/07/03 02:15:35;;;;;;;4.55;4.03;;;;;;;12.14;91.53;98814.00;4139020;28;20060;-71
2022/07/03 02:17:44;;;;;;;5.10;4.57;;;;;;;12.11;91.69;98820.31;4138950;28;20281;-71
2022/07/03 02:19:53;;;;;;;4.97;4.18;;;;;;;12.09;91.87;98819.91;4137388;28;20026;-71
2022/07/03 02:21:56;;;;;;;4.40;3.97;;;;;;;12.11;90.37;98822.31;4139066;28;20548;-71
2022/07/03 02:24:26;;;;;;;5.38;4.47;;;;;;;12.11;89.49;98828.63;4137459;28;20100;-71
2022/07/03 02:26:34;;;;;;;4.47;4.07;;;;;;;12.04;89.44;98823.81;4137503;28;20108;-71
2022/07/03 02:28:52;;;;;;;4.15;3.70;;;;;;;12.00;89.78;98827.72;4136997;28;20080;-71
2022/07/03 02:30:57;;;;;;;4.80;4.20;;;;;;;12.07;88.56;98825.81;4137376;28;20037;-71
2022/07/03 02:33:00;;;;;;;4.18;3.78;;;;;;;12.01;89.03;98827.34;4137620;28;20232;-71
2022/07/03 02:35:16;;;;;;;5.57;4.07;;;;;;;12.01;88.80;98830.13;4138258;28;20052;-71
2022/07/03 02:37:19;;;;;;;4.10;3.70;;;;;;;12.01;88.88;98829.31;4138410;28;20069;-71
2022/07/03 02:39:43;;;;;;;4.45;3.97;;;;;;;11.94;89.34;98824.50;4136646;28;20065;-71
2022/07/03 02:41:46;;;;;;;5.25;3.55;;;;;;;11.89;89.64;98818.47;4137272;28;20038;-72
2022/07/03 02:43:51;;;;;;;4.57;3.83;;;;;;;11.88;89.71;98820.44;4138010;28;20035;-72
2022/07/03 02:46:00;;;;;;;3.85;3.45;;;;;;;11.88;88.11;98814.13;4138270;28;20042;-72
2022/07/03 02:48:18;;;;;;;4.70;3.60;;;;;;;11.81;88.57;98818.38;4137894;28;20258;-71
2022/07/03 02:50:22;;;;;;;4.03;3.63;;;;;;;11.81;89.47;98806.50;4137154;28;20033;-71
2022/07/03 02:52:30;;;;;;;4.32;3.85;;;;;;;11.77;89.77;98814.75;4138717;28;20034;-71
2022/07/03 02:54:39;;;;;;;5.03;3.92;;;;;;;11.72;91.16;98812.31;4138091;28;20025;-71
2022/07/03 02:57:03;;;;;;;7.63;4.13;;;;;;;11.66;91.99;98799.94;4137814;28;20033;-71
2022/07/03 02:59:15;;;;;;;9.35;3.80;;;;;;;11.65;92.80;98811.41;4137502;28;20477;-71
2022/07/03 03:01:29;;;;;;;4.68;3.78;;;;;;;11.62;93.44;98812.19;4137552;28;20034;-71
2022/07/03 03:03:30;;;;;;;4.82;4.32;;;;;;;11.56;93.51;98817.25;4136809;28;20025;-71
2022/07/03 03:05:36;;;;;;;5.63;4.03;;;;;;;11.51;93.68;98818.41;4138312;28;20478;-71
2022/07/03 03:08:01;;;;;;;4.53;3.53;;;;;;;11.45;94.33;98808.00;4137267;28;20069;-71
2022/07/03 03:10:02;;;;;;;4.93;4.00;;;;;;;11.43;94.17;98815.91;4136480;28;20039;-72
2022/07/03 03:12:05;;;;;;;4.00;3.60;;;;;;;11.43;94.78;98818.69;4138324;28;20117;-72
2022/07/03 03:14:10;;;;;;;5.43;4.07;;;;;;;11.44;94.76;98818.31;4137076;28;20037;-71
2022/07/03 03:16:12;;;;;;;4.18;3.83;;;;;;;11.44;94.86;98806.41;4137037;28;20038;-71
2022/07/03 03:18:20;;;;;;;4.97;4.03;;;;;;;11.39;95.38;98812.28;4138364;28;20033;-71
2022/07/03 03:20:26;;;;;;;4.25;3.85;;;;;;;11.36;95.58;98816.59;4136325;28;20517;-71
2022/07/03 03:22:57;;;;;;;7.05;4.18;;;;;;;11.40;96.49;98817.44;4137398;28;20061;-71
2022/07/03 03:24:57;;;;;;;6.20;4.22;;;;;;;11.33;97.07;98822.09;4136801;28;20468;-71
2022/07/03 03:26:59;;;;;;;4.72;4.22;;;;;;;11.30;96.78;98814.53;4137425;28;20026;-71
2022/07/03 03:29:00;;;;;;;4.88;4.40;;;;;;;11.31;96.87;98818.91;4137073;28;20078;-71
2022/07/03 03:31:00;;;;;;;7.28;4.30;;;;;;;11.29;96.84;98819.28;4136949;28;20045;-71
2022/07/03 03:33:00;;;;;;;7.20;4.07;;;;;;;11.21;97.05;98818.38;4136642;28;20470;-71
2022/07/03 03:35:01;;;;;;;5.20;4.20;;;;;;;11.20;97.29;98822.31;4137262;28;20026;-71
2022/07/03 03:37:02;;;;;;;4.57;4.07;;;;;;;11.21;97.37;98817.56;4137594;28;20424;-71
2022/07/03 03:39:02;;;;;;;5.68;4.72;;;;;;;11.22;97.28;98814.44;4137240;28;20108;-71
2022/07/03 03:41:04;;;;;;;4.25;3.85;;;;;;;11.23;96.85;98818.00;4137321;28;20338;-72
2022/07/03 03:43:04;;;;;;;5.90;4.72;;;;;;;11.17;97.86;98823.06;4138038;28;20037;-71
2022/07/03 03:45:06;;;;;;;5.82;4.35;;;;;;;11.17;97.71;98820.31;4136074;28;20062;-71
2022/07/03 03:47:07;;;;;;;6.60;4.60;;;;;;;11.13;97.70;98813.09;4136616;28;20058;-71
2022/07/03 03:49:07;;;;;;;4.97;4.47;;;;;;;11.15;97.38;98821.84;4135540;28;20510;-72
2022/07/03 03:51:08;;;;;;;5.45;4.22;;;;;;;11.15;97.32;98822.63;4137226;28;20034;-71
2022/07/03 03:53:11;;;;;;;6.80;4.82;;;;;;;11.21;96.36;98823.91;4136763;28;20048;-71
2022/07/03 03:55:11;;;;;;;6.90;4.80;;;;;;;11.20;96.26;98818.75;4136616;28;20042;-71
2022/07/03 03:57:23;;;;;;;7.00;4.85;;;;;;;11.18;96.07;98810.81;4138044;28;20417;-71
2022/07/03 03:59:24;;;;;;;6.20;5.15;;;;;;;11.22;96.01;98811.66;4135062;28;20029;-71
2022/07/03 04:01:24;;;;;;;8.00;4.78;;;;;;;11.28;95.58;98822.44;4136335;28;20407;-71
2022/07/03 04:03:25;;;;;;;5.80;4.18;;;;;;;11.36;96.00;98826.91;4136007;28;20034;-71
2022/07/03 04:05:26;;;;;;;4.90;4.18;;;;;;;11.39;95.26;98824.16;4136205;28;20049;-71
2022/07/03 04:07:26;;;;;;;5.18;4.45;;;;;;;11.48;94.13;98813.59;4135191;28;20446;-71
2022/07/03 04:09:27;;;;;;;6.82;4.38;;;;;;;11.57;93.47;98805.00;4135655;28;20038;-71
2022/07/03 04:11:27;;;;;;;5.85;4.70;;;;;;;11.71;91.77;98810.72;4135407;28;20034;-71
2022/07/03 04:13:27;;;;;;;5.07;4.10;;;;;;;11.78;91.39;98807.25;4137292;28;20100;-72
2022/07/03 04:15:28;;;;;;;5.38;4.32;;;;;;;11.86;92.00;98810.94;4137729;28;20088;-71
2022/07/03 04:17:28;;;;;;;6.40;4.32;;;;;;;11.90;91.61;98807.00;4137185;28;20113;-71
2022/07/03 04:19:29;;;;;;;5.65;4.50;;;;;;;11.99;90.83;98809.47;4135217;28;20042;-71
2022/07/03 04:21:29;;;;;;;6.45;4.85;;;;;;;12.05;90.77;98813.50;4136764;28;20349;-71
2022/07/03 04:23:30;;;;;;;4.68;4.20;;;;;;;12.13;90.58;98809.63;4137211;28;20217;-71
2022/07/03 04:25:31;;;;;;;9.52;4.10;;;;;;;12.22;88.75;98804.56;4134154;28;20041;-72
2022/07/03 04:27:32;;;;;;;4.63;4.20;;;;;;;12.37;87.82;98809.09;4135452;28;20033;-71
2022/07/03 04:29:32;;;;;;;8.63;4.40;;;;;;;12.45;88.13;98806.38;4135573;28;20034;-71
2022/07/03 04:31:33;;;;;;;7.53;4.13;;;;;;;12.53;87.68;98799.72;4135932;28;20398;-71
2022/07/03 04:33:33;;;;;;;7.70;4.05;;;;;;;12.63;87.77;98808.13;4135348;28;20109;-71
2022/07/03 04:35:33;;;;;;;5.70;4.40;;;;;;;12.71;87.03;98800.66;4136390;28;20033;-71
2022/07/03 04:37:34;;;;;;;5.22;4.40;;;;;;;12.86;85.48;98807.13;4136433;28;20030;-71
2022/07/03 04:39:34;;;;;;;4.70;3.95;;;;;;;12.99;85.94;98807.59;4135995;28;20522;-71
2022/07/03 04:41:35;;;;;;;5.38;4.35;;;;;;;13.09;86.28;98818.00;4137336;28;20497;-72
2022/07/03 04:43:38;;;;;;;5.72;4.47;;;;;;;13.19;86.56;98814.50;4136711;28;20581;-71
2022/07/03 04:45:38;;;;;;;5.50;3.90;;;;;;;13.28;84.65;98812.22;4135402;28;20125;-71
2022/07/03 04:47:39;;;;;;;5.40;4.20;;;;;;;13.40;83.95;98811.88;4136278;28;20141;-71
2022/07/03 04:49:39;;;;;;;8.93;4.40;;;;;;;13.48;85.71;98810.72;4135805;28;20104;-71
2022/07/03 04:51:39;;;;;;;6.22;4.35;;;;;;;13.58;84.64;98811.19;4136855;28;20163;-71
2022/07/03 04:53:40;;;;;;;8.82;4.47;;;;;;;13.64;84.25;98806.81;4137135;28;20036;-71
2022/07/03 04:55:40;;;;;;;7.35;3.78;;;;;;;13.73;83.62;98808.06;4135205;28;20048;-71
2022/07/03 04:57:41;;;;;;;9.23;4.72;;;;;;;13.82;83.77;98798.53;4138934;28;20553;-71
2022/07/03 04:59:41;;;;;;;4.47;4.07;;;;;;;13.88;84.01;98799.78;4136563;28;20032;-71
2022/07/03 05:01:41;;;;;;;9.02;4.60;;;;;;;13.96;83.72;98806.94;4140028;28;20037;-71
2022/07/03 05:03:42;;;;;;;5.65;3.88;;;;;;;14.06;83.47;98801.41;4140307;28;20026;-72
2022/07/03 05:05:42;;;;;;;4.75;4.10;;;;;;;14.17;83.81;98798.66;4139597;28;20497;-71
2022/07/03 05:07:44;;;;;;;4.90;4.40;;;;;;;14.31;84.00;98797.88;4140389;28;20025;-71
2022/07/03 05:09:44;;;;;;;5.28;4.47;;;;;;;14.39;82.78;98796.69;4138073;28;20093;-71
2022/07/03 05:11:45;;;;;;;6.72;4.18;;;;;;;14.50;82.16;98797.56;4139188;28;20551;-70
2022/07/03 05:13:45;;;;;;;6.88;4.60;;;;;;;14.58;82.18;98801.94;4137797;28;20038;-70
2022/07/03 05:15:46;;;;;;;4.57;4.07;;;;;;;14.71;81.29;98796.75;4140394;28;20034;-71
2022/07/03 05:17:47;;;;;;;4.95;4.15;;;;;;;14.81;81.36;98790.41;4139181;28;20069;-71
2022/07/03 05:19:47;;;;;;;4.35;3.65;;;;;;;14.92;80.72;98787.59;4138643;28;20531;-71
2022/07/03 05:21:48;;;;;;;7.70;4.68;;;;;;;15.02;79.96;98786.00;4138929;28;20033;-71
2022/07/03 05:23:48;;;;;;;5.25;4.18;;;;;;;15.13;80.02;98778.41;4139942;28;20029;-71
2022/07/03 05:25:48;;;;;;;7.18;4.35;;;;;;;15.24;80.65;98781.19;4139572;28;20153;-71
2022/07/03 05:27:50;;;;;;;4.50;3.85;;;;;;;15.37;79.61;98787.91;4139109;28;20026;-71
2022/07/03 05:29:50;;;;;;;5.40;4.38;;;;;;;15.48;80.04;98788.69;4139549;28;20072;-71
2022/07/03 05:31:50;;;;;;;4.45;3.55;;;;;;;15.58;77.62;98793.44;4138926;28;20026;-71
2022/07/03 05:33:51;;;;;;;5.72;3.70;;;;;;;15.65;76.63;98790.66;4138457;28;20053;-71
2022/07/03 05:35:51;;;;;;;7.82;4.13;;;;;;;15.76;76.88;98792.59;4139249;28;20087;-71
2022/07/03 05:37:52;;;;;;;6.32;4.00;;;;;;;15.86;77.31;98794.53;4139248;28;20024;-71
2022/07/03 05:39:52;;;;;;;5.78;3.80;;;;;;;15.95;78.08;98780.94;4138541;28;20622;-71
2022/07/03 05:41:53;;;;;;;5.05;3.67;;;;;;;16.07;76.91;98793.66;4139020;28;20041;-71
2022/07/03 05:43:53;;;;;;;7.05;4.50;;;;;;;16.16;78.97;98794.00;4139525;28;20500;-70
2022/07/03 05:45:53;;;;;;;4.65;3.97;;;;;;;16.23;77.08;98800.31;4138839;28;20038;-71
2022/07/03 05:47:54;;;;;;;5.70;3.95;;;;;;;16.31;78.19;98791.91;4137927;28;20046;-71
2022/07/03 05:49:54;;;;;;;9.52;4.70;;;;;;;16.43;78.22;98800.59;4138369;28;20355;-71
2022/07/03 05:51:55;;;;;;;4.13;3.65;;;;;;;16.52;77.15;98800.13;4138456;28;20458;-71
2022/07/03 05:53:55;;;;;;;5.03;4.05;;;;;;;16.63;72.27;98797.25;4138384;28;20348;-71
2022/07/03 05:55:56;;;;;;;5.07;3.95;;;;;;;16.73;71.67;98804.81;4137150;28;20048;-71
2022/07/03 05:57:56;;;;;;;6.70;3.70;;;;;;;16.79;72.84;98795.53;4137413;28;20077;-71
2022/07/03 05:59:57;;;;;;;6.63;4.05;;;;;;;16.90;73.58;98803.06;4137456;28;20157;-71
2022/07/03 06:01:57;;;;;;;4.55;4.15;;;;;;;16.98;75.50;98799.00;4136933;28;20042;-71
2022/07/03 06:03:58;;;;;;;6.43;3.92;;;;;;;17.09;76.46;98796.88;4137029;28;20038;-71
2022/07/03 06:05:59;;;;;;;6.95;5.10;;;;;;;17.23;76.98;98796.75;4138541;28;20489;-71
2022/07/03 06:08:00;;;;;;;5.95;4.40;;;;;;;17.36;76.39;98800.59;4139566;28;20031;-71
2022/07/03 06:10:00;;;;;;;6.82;4.20;;;;;;;17.49;74.90;98795.28;4137164;28;20092;-71
2022/07/03 06:12:00;;;;;;;8.70;4.15;;;;;;;17.52;76.34;98796.44;4138924;28;20034;-71
2022/07/03 06:14:01;;;;;;;5.45;3.90;;;;;;;17.47;75.95;98794.13;4138094;28;20313;-71
2022/07/03 06:16:01;;;;;;;5.65;3.58;;;;;;;17.46;75.55;98796.13;4139035;28;20033;-71
2022/07/03 06:18:01;;;;;;;4.93;4.05;;;;;;;17.54;76.49;98794.00;4138557;28;20026;-71
2022/07/03 06:20:03;;;;;;;4.00;3.60;;;;;;;17.68;76.75;98791.84;4136465;28;20037;-71
2022/07/03 06:22:03;;;;;;;4.28;3.70;;;;;;;17.89;75.22;98796.41;4138089;28;20391;-71
2022/07/03 06:24:04;;;;;;;4.47;3.60;;;;;;;18.06;73.60;98797.41;4139142;28;20036;-71
2022/07/03 06:26:05;;;;;;;5.50;3.33;;;;;;;18.10;73.63;98792.53;4138419;28;20034;-70
2022/07/03 06:28:05;;;;;;;4.00;3.60;;;;;;;18.05;73.70;98795.03;4138169;28;20052;-73
2022/07/03 06:30:06;;;;;;;7.97;3.65;;;;;;;18.15;73.68;98788.47;4137660;28;20052;-72
2022/07/03 06:32:07;;;;;;;4.28;3.53;;;;;;;18.26;73.62;98786.31;4139051;28;20437;-72
2022/07/03 06:34:07;;;;;;;4.00;3.63;;;;;;;18.33;72.25;98780.59;4136534;28;20038;-72
2022/07/03 06:36:07;;;;;;;4.88;3.90;;;;;;;18.48;72.18;98778.38;4137738;28;20026;-72
2022/07/03 06:38:08;;;;;;;6.25;3.70;;;;;;;18.61;71.18;98778.56;4139353;28;20018;-72
2022/07/03 06:40:09;;;;;;;4.68;3.47;;;;;;;18.67;70.90;98772.09;4136504;28;20062;-72
2022/07/03 06:42:09;;;;;;;4.88;3.00;;;;;;;18.79;70.05;98773.53;4138232;28;20435;-71
2022/07/03 06:44:10;;;;;;;4.13;2.97;;;;;;;18.91;70.40;98769.31;4138057;28;20294;-72
2022/07/03 06:46:10;;;;;;;3.50;3.20;;;;;;;19.05;68.48;98757.84;4137381;28;20470;-72
2022/07/03 06:48:10;;;;;;;4.05;3.05;;;;;;;19.15;68.16;98768.06;4136862;28;20034;-72
2022/07/03 06:50:11;;;;;;;3.75;3.38;;;;;;;19.24;68.35;98764.69;4135302;28;20030;-72
2022/07/03 06:52:11;;;;;;;3.28;2.95;;;;;;;19.38;69.72;98758.03;4138950;28;20538;-72
2022/07/03 06:54:12;;;;;;;3.50;3.20;;;;;;;19.48;67.73;98760.63;4137026;28;20064;-72
2022/07/03 06:56:12;;;;;;;3.20;2.90;;;;;;;19.60;67.38;98757.19;4138101;28;20026;-72
2022/07/03 06:58:13;;;;;;;3.30;3.00;;;;;;;19.70;65.96;98746.19;4138057;28;20030;-72
2022/07/03 07:00:14;;;;;;;3.28;2.97;;;;;;;19.82;65.67;98751.13;4136141;28;20037;-72
2022/07/03 07:02:15;;;;;;;3.97;2.72;;;;;;;19.93;65.59;98749.66;4137292;28;20030;-72
2022/07/03 07:04:15;;;;;;;5.57;2.97;;;;;;;20.02;64.61;98753.91;4136223;28;20296;-72
2022/07/03 07:06:15;;;;;;;5.30;2.90;;;;;;;20.13;64.12;98749.66;4138329;28;20474;-72
2022/07/03 07:08:16;;;;;;;4.30;2.58;;;;;;;20.28;61.89;98750.13;4137356;28;20362;-72
2022/07/03 07:10:16;;;;;;;3.00;2.60;;;;;;;20.37;61.21;98741.88;4136996;28;20061;-72
2022/07/03 07:12:17;;;;;;;3.70;2.72;;;;;;;20.48;61.44;98747.25;4137178;28;20037;-72
2022/07/03 07:14:17;;;;;;;2.90;2.60;;;;;;;20.66;61.44;98746.81;4136029;28;20037;-72
2022/07/03 07:16:17;;;;;;;4.95;2.50;;;;;;;20.78;61.23;98748.16;4137060;28;20029;-72
2022/07/03 07:18:18;;;;;;;4.22;2.75;;;;;;;20.89;58.94;98741.00;4137459;28;20039;-72
2022/07/03 07:20:18;;;;;;;2.60;2.40;;;;;;;20.99;59.27;98744.78;4135873;28;20398;-72
2022/07/03 07:22:19;;;;;;;6.07;3.13;;;;;;;21.16;58.08;98743.50;4136697;28;20057;-72
2022/07/03 07:24:19;;;;;;;3.45;2.70;;;;;;;21.30;57.87;98745.19;4138425;28;20034;-72
2022/07/03 07:26:20;;;;;;;3.92;2.20;;;;;;;21.35;57.66;98747.47;4136955;28;20034;-72
2022/07/03 07:28:20;;;;;;;2.63;2.40;;;;;;;21.46;57.80;98741.53;4135450;28;20029;-72
2022/07/03 07:30:21;;;;;;;3.40;2.45;;;;;;;21.53;57.50;98742.13;4136940;28;20273;-72
2022/07/03 07:32:21;;;;;;;3.88;2.42;;;;;;;21.62;57.66;98747.09;4136709;28;20488;-72
2022/07/03 07:34:21;;;;;;;3.03;2.20;;;;;;;21.72;56.87;98742.38;4136561;28;20446;-72
2022/07/03 07:36:22;;;;;;;2.90;2.53;;;;;;;21.76;56.92;98745.88;4136798;28;20114;-72
2022/07/03 07:38:22;;;;;;;3.63;2.30;;;;;;;21.94;55.87;98740.53;4136304;28;20410;-72
2022/07/03 07:40:23;;;;;;;8.20;2.58;;;;;;;22.09;55.10;98749.34;4135572;28;20462;-72
2022/07/03 07:42:24;;;;;;;4.25;2.35;;;;;;;22.14;55.69;98746.75;4075393;28;20054;-72
2022/07/03 07:44:24;;;;;;;2.40;2.20;;;;;;;22.15;54.92;98739.09;4129852;28;20100;-72
2022/07/03 07:46:25;;;;;;;2.88;2.22;;;;;;;22.20;54.58;98743.38;4136902;28;20029;-72
2022/07/03 07:48:25;;;;;;;2.78;2.22;;;;;;;22.35;52.20;98738.88;4135491;28;20491;-73
2022/07/03 07:50:26;;;;;;;2.35;2.00;;;;;;;22.49;53.16;98740.44;4136809;28;20331;-72
2022/07/03 07:52:26;;;;;;;3.80;2.28;;;;;;;22.57;51.99;98750.25;4136765;28;20482;-73
2022/07/03 07:54:26;;;;;;;4.63;1.60;;;;;;;22.64;50.05;98747.97;4136577;28;20079;-73
2022/07/03 07:56:27;;;;;;;3.13;1.90;;;;;;;22.70;50.35;98757.47;4136371;28;20362;-72
2022/07/03 07:58:27;;;;;;;4.68;1.65;;;;;;;22.74;49.12;98746.03;4136862;28;20048;-72
2022/07/03 08:00:28;;;;;;;2.35;1.70;;;;;;;22.88;46.48;98737.13;4135169;28;20025;-72
2022/07/03 08:07:06;;;;;;;2.28;1.30;;;;;;;23.44;44.84;98732.78;4135307;28;20096;-72
2022/07/03 08:09:06;;;;;;;1.30;1.17;;;;;;;23.57;43.82;98744.00;4131267;28;20046;-72
2022/07/03 08:11:07;;;;;;;1.38;1.27;;;;;;;23.91;41.90;98748.78;4134521;28;20166;-72
2022/07/03 08:13:08;;;;;;;1.27;1.17;;;;;;;24.09;40.96;98741.22;4134338;28;20033;-72
2022/07/03 08:15:09;;;;;;;2.40;1.17;;;;;;;24.09;42.67;98746.09;4134122;28;20365;-72
2022/07/03 08:17:09;;;;;;;1.27;1.17;;;;;;;24.03;42.36;98739.47;4134266;28;20092;-72
2022/07/03 08:19:09;;;;;;;1.75;1.20;;;;;;;24.18;42.64;98754.63;4132793;28;20037;-72
2022/07/03 08:21:10;;;;;;;1.75;1.23;;;;;;;24.43;40.66;98741.56;4136145;28;20025;-72
2022/07/03 08:23:11;;;;;;;6.97;1.30;;;;;;;24.52;41.52;98741.59;4134964;28;20429;-72
2022/07/03 08:25:11;;;;;;;1.95;1.45;;;;;;;24.47;40.64;98740.13;4135499;28;20026;-72
2022/07/03 08:27:11;;;;;;;1.55;1.33;;;;;;;24.45;40.58;98734.16;4132515;28;20036;-72
2022/07/03 08:29:12;;;;;;;1.40;1.10;;;;;;;24.50;41.01;98732.78;4133165;28;20034;-72
2022/07/03 08:31:12;;;;;;;2.10;1.40;;;;;;;24.48;41.36;98738.88;4134585;28;20075;-72
2022/07/03 08:33:12;;;;;;;3.28;1.30;;;;;;;24.50;41.58;98744.88;4133731;28;20120;-72
2022/07/03 08:35:13;;;;;;;4.03;1.40;;;;;;;24.55;40.74;98732.94;4134864;28;20025;-72
2022/07/03 08:37:13;;;;;;;2.22;1.60;;;;;;;24.59;39.88;98735.63;4134447;28;20954;-72
2022/07/03 08:39:14;;;;;;;4.50;1.58;;;;;;;24.78;41.90;98737.25;4133416;28;20026;-72
2022/07/03 08:41:16;;;;;;;1.90;1.40;;;;;;;24.82;40.35;98725.78;4133668;28;20041;-72
2022/07/03 08:43:18;;;;;;;2.22;1.77;;;;;;;24.85;39.62;98722.81;4133265;28;20038;-72
2022/07/03 08:45:20;;;;;;;3.88;2.60;;;;;;;24.88;39.44;98730.34;4134135;28;20061;-72
2022/07/03 08:47:22;;;;;;;1.50;1.38;;;;;;;24.97;40.35;98729.56;4134942;28;20058;-72
2022/07/03 08:49:23;;;;;;;;;;;;;;;25.00;39.21;98727.88;4135261;28;20030;-72
2022/07/03 08:51:24;;;;;;;5.45;2.30;;;;;;;24.86;39.60;98730.03;4136725;28;19920;-72
2022/07/03 08:53:25;;;;;;;2.55;1.67;;;;;;;24.89;40.11;98731.13;4137560;28;20375;-72
2022/07/03 08:55:25;;;;;;;2.45;1.30;;;;;;;24.88;38.94;98729.56;4136974;28;20292;-72
2022/07/03 08:57:27;;;;;;;2.13;1.40;;;;;;;24.97;40.99;98728.78;4136047;28;20421;-72
2022/07/03 08:59:36;;;;;;;2.08;1.40;;;;;;;25.01;38.77;98727.38;4136291;28;20384;-72
2022/07/03 09:01:41;;;;;;;1.77;1.48;;;;;;;25.00;38.18;98730.69;4137129;28;20477;-72
2022/07/03 09:03:43;;;;;;;2.00;1.80;;;;;;;25.11;38.69;98723.34;4135334;28;20370;-72
2022/07/03 09:05:44;;;;;;;1.83;1.60;;;;;;;25.21;39.54;98721.28;4136802;28;20068;-72
2022/07/03 09:07:45;;;;;;;3.97;1.35;;;;;;;25.28;39.28;98720.19;4136794;28;20461;-72
2022/07/03 09:09:46;;;;;;;3.40;2.03;;;;;;;25.34;37.95;98726.81;4135384;28;20656;-72
2022/07/03 09:11:47;;;;;;;3.47;2.05;;;;;;;25.39;38.36;98724.09;4136687;28;20132;-72
2022/07/03 09:13:48;;;;;;;3.10;2.40;;;;;;;25.45;38.41;98722.22;4135271;28;20034;-72
2022/07/03 09:15:48;;;;;;;2.10;1.38;;;;;;;25.53;38.63;98713.41;4135974;28;20435;-72
2022/07/03 09:18:00;;;;;;;5.88;3.15;;;;;;;25.46;38.24;98726.63;4134974;28;20530;-72
2022/07/03 09:20:03;;;;;;;;;;;;;;;25.59;38.38;98723.63;4136389;28;20030;-72
2022/07/03 09:22:03;;;;;;;2.38;1.42;;;;;;;25.48;36.94;98726.16;4136580;28;19915;-72
2022/07/03 09:24:06;;;;;;;2.22;1.30;;;;;;;25.66;37.81;98725.38;4135124;28;20101;-72
2022/07/03 09:26:12;;;;;;;1.88;1.42;;;;;;;25.64;36.95;98728.66;4135795;28;20454;-73
2022/07/03 09:28:13;;;;;;;3.75;1.30;;;;;;;25.65;38.82;98712.44;4135645;28;20053;-72
2022/07/03 09:30:13;;;;;;;1.52;1.20;;;;;;;25.70;38.80;98721.09;4135870;28;20037;-72
2022/07/03 09:32:13;;;;;;;1.50;1.38;;;;;;;25.78;36.26;98721.59;4136416;28;20510;-72
2022/07/03 09:34:14;;;;;;;1.33;1.20;;;;;;;25.80;36.70;98721.09;4136090;28;20088;-72
2022/07/03 09:36:14;;;;;;;2.20;1.25;;;;;;;25.90;38.96;98708.47;4136096;28;20117;-72
2022/07/03 09:38:14;;;;;;;1.83;1.20;;;;;;;25.81;36.78;98708.50;4136947;28;20470;-72
2022/07/03 09:40:16;;;;;;;1.77;1.30;;;;;;;25.80;35.45;98710.56;4135794;28;20034;-72
2022/07/03 09:42:19;;;;;;;4.23;1.40;;;;;;;25.76;35.93;98715.63;4135586;28;20056;-72
2022/07/03 09:44:40;;;;;;;2.70;2.05;;;;;;;25.71;35.90;98719.06;4137889;28;20599;-72